sensor_id;sensor_type;location;lat;lon;timestamp;pressure;altitude;pressure_sealevel;temperature;humidity
27144;BME280;14672;50.250;8.312;2023-04-28T00:02:02;98635.91;;;14.55;56.08
27144;BME280;14672;50.250;8.312;2023-04-28T00:04:28;98633.47;;;14.48;56.43
27144;BME280;14672;50.250;8.312;2023-04-28T00:06:54;98633.84;;;14.56;56.55
27144;BME280;14672;50.250;8.312;2023-04-28T00:09:20;98632.47;;;14.51;56.36
27144;BME280;14672;50.250;8.312;2023-04-28T00:11:46;98628.53;;;14.49;56.92
27144;BME280;14672;50.250;8.312;2023-04-28T00:14:12;98616.78;;;14.47;56.36
27144;BME280;14672;50.250;8.312;2023-04-28T00:16:38;98614.25;;;14.49;56.15
27144;BME280;14672;50.250;8.312;2023-04-28T00:19:04;98615.81;;;14.50;56.42
27144;BME280;14672;50.250;8.312;2023-04-28T00:21:29;98611.38;;;14.49;56.71
27144;BME280;14672;50.250;8.312;2023-04-28T00:23:56;98617.88;;;14.49;56.36
27144;BME280;14672;50.250;8.312;2023-04-28T00:26:22;98608.53;;;14.49;56.73
27144;BME280;14672;50.250;8.312;2023-04-28T00:28:48;98602.97;;;14.45;57.04
27144;BME280;14672;50.250;8.312;2023-04-28T00:31:14;98597.97;;;14.40;57.31
27144;BME280;14672;50.250;8.312;2023-04-28T00:33:43;98605.25;;;14.41;57.45
27144;BME280;14672;50.250;8.312;2023-04-28T00:36:10;98597.97;;;14.40;57.40
27144;BME280;14672;50.250;8.312;2023-04-28T00:38:36;98593.03;;;14.41;57.55
27144;BME280;14672;50.250;8.312;2023-04-28T00:41:02;98588.81;;;14.36;57.64
27144;BME280;14672;50.250;8.312;2023-04-28T00:43:28;98594.81;;;14.38;57.48
27144;BME280;14672;50.250;8.312;2023-04-28T00:45:54;98598.75;;;14.41;57.03
27144;BME280;14672;50.250;8.312;2023-04-28T00:48:20;98592.75;;;14.39;57.13
27144;BME280;14672;50.250;8.312;2023-04-28T00:50:48;98580.22;;;14.36;56.67
27144;BME280;14672;50.250;8.312;2023-04-28T00:53:14;98573.31;;;14.43;56.66
27144;BME280;14672;50.250;8.312;2023-04-28T00:55:40;98580.56;;;14.29;57.41
27144;BME280;14672;50.250;8.312;2023-04-28T00:58:07;98571.16;;;14.38;57.35
27144;BME280;14672;50.250;8.312;2023-04-28T01:00:33;98572.94;;;14.35;57.21
27144;BME280;14672;50.250;8.312;2023-04-28T01:02:59;98568.66;;;14.31;57.70
27144;BME280;14672;50.250;8.312;2023-04-28T01:05:26;98558.81;;;14.32;57.55
27144;BME280;14672;50.250;8.312;2023-04-28T01:07:52;98545.78;;;14.31;57.72
27144;BME280;14672;50.250;8.312;2023-04-28T01:10:19;98543.56;;;14.35;58.06
27144;BME280;14672;50.250;8.312;2023-04-28T01:12:45;98535.03;;;14.26;58.87
27144;BME280;14672;50.250;8.312;2023-04-28T01:15:18;98540.38;;;14.18;59.46
27144;BME280;14672;50.250;8.312;2023-04-28T01:17:47;98531.50;;;14.31;59.08
27144;BME280;14672;50.250;8.312;2023-04-28T01:20:14;98544.59;;;14.23;59.50
27144;BME280;14672;50.250;8.312;2023-04-28T01:22:40;98533.09;;;14.17;59.21
27144;BME280;14672;50.250;8.312;2023-04-28T01:25:06;98525.69;;;14.25;58.49
27144;BME280;14672;50.250;8.312;2023-04-28T01:27:32;98522.66;;;14.29;58.50
27144;BME280;14672;50.250;8.312;2023-04-28T01:29:58;98514.66;;;14.33;58.44
27144;BME280;14672;50.250;8.312;2023-04-28T01:32:23;98521.19;;;14.48;54.24
27144;BME280;14672;50.250;8.312;2023-04-28T01:34:49;98511.63;;;14.51;53.82
27144;BME280;14672;50.250;8.312;2023-04-28T01:37:16;98509.06;;;14.53;55.02
27144;BME280;14672;50.250;8.312;2023-04-28T01:39:41;98509.44;;;14.61;54.45
27144;BME280;14672;50.250;8.312;2023-04-28T01:42:07;98508.25;;;14.67;53.99
27144;BME280;14672;50.250;8.312;2023-04-28T01:44:33;98516.13;;;14.72;53.18
27144;BME280;14672;50.250;8.312;2023-04-28T01:46:59;98508.16;;;14.76;53.19
27144;BME280;14672;50.250;8.312;2023-04-28T01:49:25;98518.59;;;14.79;53.03
27144;BME280;14672;50.250;8.312;2023-04-28T01:51:50;98528.44;;;14.78;53.19
27144;BME280;14672;50.250;8.312;2023-04-28T01:57:57;98528.94;;;14.77;53.65
27144;BME280;14672;50.250;8.312;2023-04-28T02:00:23;98518.59;;;14.79;53.96
27144;BME280;14672;50.250;8.312;2023-04-28T02:02:49;98526.16;;;14.82;54.38
27144;BME280;14672;50.250;8.312;2023-04-28T02:05:15;98521.44;;;14.79;55.07
27144;BME280;14672;50.250;8.312;2023-04-28T02:07:40;98515.81;;;14.85;55.46
27144;BME280;14672;50.250;8.312;2023-04-28T02:10:07;98514.72;;;14.82;56.47
27144;BME280;14672;50.250;8.312;2023-04-28T02:12:33;98532.09;;;14.79;56.52
27144;BME280;14672;50.250;8.312;2023-04-28T02:14:59;98519.28;;;14.74;56.60
27144;BME280;14672;50.250;8.312;2023-04-28T02:17:25;98511.22;;;14.73;56.21
27144;BME280;14672;50.250;8.312;2023-04-28T02:19:57;98506.56;;;14.75;55.75
27144;BME280;14672;50.250;8.312;2023-04-28T02:22:23;98510.13;;;14.70;55.92
27144;BME280;14672;50.250;8.312;2023-04-28T02:24:49;98513.66;;;14.65;56.61
27144;BME280;14672;50.250;8.312;2023-04-28T02:27:16;98510.13;;;14.70;56.31
27144;BME280;14672;50.250;8.312;2023-04-28T02:29:41;98499.19;;;14.69;57.47
27144;BME280;14672;50.250;8.312;2023-04-28T02:32:07;98503.91;;;14.72;57.28
27144;BME280;14672;50.250;8.312;2023-04-28T02:34:33;98495.59;;;14.74;56.87
27144;BME280;14672;50.250;8.312;2023-04-28T02:37:00;98504.91;;;14.54;57.41
27144;BME280;14672;50.250;8.312;2023-04-28T02:39:26;98502.22;;;14.65;57.07
27144;BME280;14672;50.250;8.312;2023-04-28T02:41:54;98508.53;;;14.69;57.39
27144;BME280;14672;50.250;8.312;2023-04-28T02:44:21;98511.13;;;14.67;57.09
27144;BME280;14672;50.250;8.312;2023-04-28T02:46:47;98499.78;;;14.58;57.53
27144;BME280;14672;50.250;8.312;2023-04-28T02:49:13;98493.69;;;14.50;57.52
27144;BME280;14672;50.250;8.312;2023-04-28T02:51:39;98488.34;;;14.58;57.40
27144;BME280;14672;50.250;8.312;2023-04-28T02:54:05;98471.72;;;14.56;57.28
27144;BME280;14672;50.250;8.312;2023-04-28T02:56:31;98476.50;;;14.65;57.55
27144;BME280;14672;50.250;8.312;2023-04-28T02:58:57;98473.84;;;14.62;57.59
27144;BME280;14672;50.250;8.312;2023-04-28T03:01:23;98475.53;;;14.68;57.35
27144;BME280;14672;50.250;8.312;2023-04-28T03:03:49;98472.66;;;14.68;57.27
27144;BME280;14672;50.250;8.312;2023-04-28T03:06:15;98472.16;;;14.70;57.03
27144;BME280;14672;50.250;8.312;2023-04-28T03:08:40;98465.06;;;14.65;57.38
27144;BME280;14672;50.250;8.312;2023-04-28T03:11:06;98463.28;;;14.68;57.62
27144;BME280;14672;50.250;8.312;2023-04-28T03:13:32;98464.38;;;14.70;57.20
27144;BME280;14672;50.250;8.312;2023-04-28T03:15:58;98455.31;;;14.72;57.45
27144;BME280;14672;50.250;8.312;2023-04-28T03:18:24;98450.97;;;14.62;58.19
27144;BME280;14672;50.250;8.312;2023-04-28T03:20:49;98451.91;;;14.53;58.01
27144;BME280;14672;50.250;8.312;2023-04-28T03:23:15;98451.75;;;14.62;57.28
27144;BME280;14672;50.250;8.312;2023-04-28T03:25:41;98439.84;;;14.64;56.79
27144;BME280;14672;50.250;8.312;2023-04-28T03:28:07;98429.69;;;14.63;56.74
27144;BME280;14672;50.250;8.312;2023-04-28T03:30:32;98424.84;;;14.69;57.29
27144;BME280;14672;50.250;8.312;2023-04-28T03:32:58;98431.75;;;14.62;59.39
27144;BME280;14672;50.250;8.312;2023-04-28T03:35:24;98425.44;;;14.58;60.71
27144;BME280;14672;50.250;8.312;2023-04-28T03:37:50;98426.88;;;14.48;61.11
27144;BME280;14672;50.250;8.312;2023-04-28T03:40:15;98429.00;;;14.68;58.65
27144;BME280;14672;50.250;8.312;2023-04-28T03:42:42;98431.75;;;14.62;59.58
27144;BME280;14672;50.250;8.312;2023-04-28T03:45:08;98420.25;;;14.56;61.58
27144;BME280;14672;50.250;8.312;2023-04-28T03:47:35;98418.38;;;14.53;62.15
27144;BME280;14672;50.250;8.312;2023-04-28T03:50:01;98411.09;;;14.52;62.51
27144;BME280;14672;50.250;8.312;2023-04-28T03:52:27;98407.94;;;14.50;62.14
27144;BME280;14672;50.250;8.312;2023-04-28T03:54:53;98398.88;;;14.52;61.90
27144;BME280;14672;50.250;8.312;2023-04-28T03:57:19;98405.06;;;14.50;62.46
27144;BME280;14672;50.250;8.312;2023-04-28T03:59:44;98400.44;;;14.53;62.19
27144;BME280;14672;50.250;8.312;2023-04-28T04:02:10;98398.28;;;14.48;62.19
27144;BME280;14672;50.250;8.312;2023-04-28T04:04:36;98394.44;;;14.51;62.23
27144;BME280;14672;50.250;8.312;2023-04-28T04:07:02;98395.50;;;14.53;62.09
27144;BME280;14672;50.250;8.312;2023-04-28T04:09:28;98396.81;;;14.52;62.11
27144;BME280;14672;50.250;8.312;2023-04-28T04:11:54;98410.78;;;14.50;62.60
27144;BME280;14672;50.250;8.312;2023-04-28T04:14:20;98416.59;;;14.56;62.70
27144;BME280;14672;50.250;8.312;2023-04-28T04:16:46;98424.81;;;14.48;62.97
27144;BME280;14672;50.250;8.312;2023-04-28T04:19:13;98430.81;;;14.50;63.57
27144;BME280;14672;50.250;8.312;2023-04-28T04:21:39;98426.88;;;14.48;64.51
27144;BME280;14672;50.250;8.312;2023-04-28T04:24:06;98423.22;;;14.47;65.04
27144;BME280;14672;50.250;8.312;2023-04-28T04:26:31;98430.09;;;14.55;64.95
27144;BME280;14672;50.250;8.312;2023-04-28T04:28:57;98426.44;;;14.55;64.84
27144;BME280;14672;50.250;8.312;2023-04-28T04:31:23;98420.94;;;14.51;65.17
27144;BME280;14672;50.250;8.312;2023-04-28T04:33:49;98432.28;;;14.46;65.68
27144;BME280;14672;50.250;8.312;2023-04-28T04:36:15;98433.59;;;14.45;65.98
27144;BME280;14672;50.250;8.312;2023-04-28T04:38:41;98434.75;;;14.53;65.63
27144;BME280;14672;50.250;8.312;2023-04-28T04:41:06;98438.47;;;14.59;64.91
27144;BME280;14672;50.250;8.312;2023-04-28T04:43:32;98429.31;;;14.55;65.17
27144;BME280;14672;50.250;8.312;2023-04-28T04:45:58;98437.31;;;14.51;65.81
27144;BME280;14672;50.250;8.312;2023-04-28T04:48:25;98432.78;;;14.44;66.31
27144;BME280;14672;50.250;8.312;2023-04-28T04:50:50;98437.41;;;14.42;66.33
27144;BME280;14672;50.250;8.312;2023-04-28T04:53:16;98425.41;;;14.38;66.30
27144;BME280;14672;50.250;8.312;2023-04-28T04:55:42;98423.13;;;14.42;66.20
27144;BME280;14672;50.250;8.312;2023-04-28T04:58:08;98419.06;;;14.34;66.82
27144;BME280;14672;50.250;8.312;2023-04-28T05:00:34;98415.28;;;14.37;66.95
27144;BME280;14672;50.250;8.312;2023-04-28T05:03:02;98419.41;;;14.36;67.10
27144;BME280;14672;50.250;8.312;2023-04-28T05:05:28;98417.13;;;14.40;66.55
27144;BME280;14672;50.250;8.312;2023-04-28T05:07:54;98413.69;;;14.36;67.16
27144;BME280;14672;50.250;8.312;2023-04-28T05:10:20;98396.94;;;14.29;67.17
27144;BME280;14672;50.250;8.312;2023-04-28T05:12:46;98406.09;;;14.33;67.16
27144;BME280;14672;50.250;8.312;2023-04-28T05:15:11;98407.06;;;14.30;67.80
27144;BME280;14672;50.250;8.312;2023-04-28T05:17:37;98404.19;;;14.30;67.59
27144;BME280;14672;50.250;8.312;2023-04-28T05:20:03;98393.06;;;14.32;67.88
27144;BME280;14672;50.250;8.312;2023-04-28T05:22:29;98401.84;;;14.28;68.01
27144;BME280;14672;50.250;8.312;2023-04-28T05:24:56;98392.56;;;14.33;67.53
27144;BME280;14672;50.250;8.312;2023-04-28T05:27:21;98399.06;;;14.34;66.97
27144;BME280;14672;50.250;8.312;2023-04-28T05:29:47;98397.50;;;14.33;67.29
27144;BME280;14672;50.250;8.312;2023-04-28T05:32:13;98399.00;;;14.28;67.09
27144;BME280;14672;50.250;8.312;2023-04-28T05:34:38;98402.53;;;14.38;66.65
27144;BME280;14672;50.250;8.312;2023-04-28T05:37:04;98401.66;;;14.32;67.10
27144;BME280;14672;50.250;8.312;2023-04-28T05:39:30;98409.25;;;14.35;67.06
27144;BME280;14672;50.250;8.312;2023-04-28T05:41:56;98410.31;;;14.37;67.00
27144;BME280;14672;50.250;8.312;2023-04-28T05:44:23;98409.84;;;14.39;67.97
27144;BME280;14672;50.250;8.312;2023-04-28T05:46:49;98413.28;;;14.43;68.19
27144;BME280;14672;50.250;8.312;2023-04-28T05:49:15;98414.56;;;14.42;68.47
27144;BME280;14672;50.250;8.312;2023-04-28T05:51:41;98415.84;;;14.41;67.94
27144;BME280;14672;50.250;8.312;2023-04-28T05:54:07;98420.78;;;14.40;67.33
27144;BME280;14672;50.250;8.312;2023-04-28T05:56:32;98434.88;;;14.44;65.65
27144;BME280;14672;50.250;8.312;2023-04-28T05:58:58;98446.28;;;14.44;65.00
27144;BME280;14672;50.250;8.312;2023-04-28T06:01:29;98446.78;;;14.42;65.12
27144;BME280;14672;50.250;8.312;2023-04-28T06:03:56;98446.00;;;14.42;65.37
27144;BME280;14672;50.250;8.312;2023-04-28T06:06:24;98440.06;;;14.31;65.61
27144;BME280;14672;50.250;8.312;2023-04-28T06:08:50;98451.28;;;14.34;65.54
27144;BME280;14672;50.250;8.312;2023-04-28T06:11:16;98443.84;;;14.37;65.85
27144;BME280;14672;50.250;8.312;2023-04-28T06:13:43;98444.50;;;14.32;67.09
27144;BME280;14672;50.250;8.312;2023-04-28T06:16:09;98426.41;;;14.35;66.82
27144;BME280;14672;50.250;8.312;2023-04-28T06:18:35;98425.78;;;14.31;67.56
27144;BME280;14672;50.250;8.312;2023-04-28T06:21:01;98442.94;;;14.31;68.15
27144;BME280;14672;50.250;8.312;2023-04-28T06:23:27;98429.63;;;14.28;67.84
27144;BME280;14672;50.250;8.312;2023-04-28T06:25:52;98437.53;;;14.33;67.74
27144;BME280;14672;50.250;8.312;2023-04-28T06:28:18;98444.78;;;14.34;67.80
27144;BME280;14672;50.250;8.312;2023-04-28T06:30:44;98431.41;;;14.40;67.41
27144;BME280;14672;50.250;8.312;2023-04-28T06:33:10;98424.13;;;14.39;67.42
27144;BME280;14672;50.250;8.312;2023-04-28T06:35:35;98429.34;;;14.40;67.65
27144;BME280;14672;50.250;8.312;2023-04-28T06:38:03;98419.56;;;14.47;67.56
27144;BME280;14672;50.250;8.312;2023-04-28T06:40:29;98428.84;;;14.42;68.02
27144;BME280;14672;50.250;8.312;2023-04-28T06:42:55;98425.13;;;14.36;68.07
27144;BME280;14672;50.250;8.312;2023-04-28T06:45:21;98423.72;;;14.46;67.98
27144;BME280;14672;50.250;8.312;2023-04-28T06:47:47;98420.94;;;14.51;67.80
27144;BME280;14672;50.250;8.312;2023-04-28T06:50:13;98412.06;;;14.49;68.07
27144;BME280;14672;50.250;8.312;2023-04-28T06:52:38;98410.31;;;14.52;68.55
27144;BME280;14672;50.250;8.312;2023-04-28T06:55:07;98402.38;;;14.62;68.27
27144;BME280;14672;50.250;8.312;2023-04-28T06:57:34;98399.50;;;14.62;68.02
27144;BME280;14672;50.250;8.312;2023-04-28T07:00:00;98393.09;;;14.67;68.18
27144;BME280;14672;50.250;8.312;2023-04-28T07:02:26;98393.72;;;14.56;68.82
27144;BME280;14672;50.250;8.312;2023-04-28T07:04:52;98394.91;;;14.49;68.81
27144;BME280;14672;50.250;8.312;2023-04-28T07:07:17;98393.16;;;14.52;68.59
27144;BME280;14672;50.250;8.312;2023-04-28T07:09:43;98391.00;;;14.47;68.83
27144;BME280;14672;50.250;8.312;2023-04-28T07:12:09;98381.03;;;14.42;69.65
27144;BME280;14672;50.250;8.312;2023-04-28T07:14:35;98393.38;;;14.48;69.35
27144;BME280;14672;50.250;8.312;2023-04-28T07:17:00;98373.22;;;14.57;68.94
27144;BME280;14672;50.250;8.312;2023-04-28T07:19:26;98367.22;;;14.55;69.53
27144;BME280;14672;50.250;8.312;2023-04-28T07:21:52;98366.91;;;14.53;69.88
27144;BME280;14672;50.250;8.312;2023-04-28T07:24:18;98380.88;;;14.66;70.26
27144;BME280;14672;50.250;8.312;2023-04-28T07:26:43;98363.41;;;14.29;71.02
27144;BME280;14672;50.250;8.312;2023-04-28T07:29:09;98373.28;;;14.28;72.26
27144;BME280;14672;50.250;8.312;2023-04-28T07:31:38;98359.47;;;14.41;71.27
27144;BME280;14672;50.250;8.312;2023-04-28T07:34:03;98359.44;;;14.56;71.19
27144;BME280;14672;50.250;8.312;2023-04-28T07:36:29;98355.00;;;14.55;70.86
27144;BME280;14672;50.250;8.312;2023-04-28T07:38:56;98359.78;;;14.64;70.54
27144;BME280;14672;50.250;8.312;2023-04-28T07:41:22;98365.34;;;14.52;70.67
27144;BME280;14672;50.250;8.312;2023-04-28T07:43:48;98370.28;;;14.52;71.03
27144;BME280;14672;50.250;8.312;2023-04-28T07:46:14;98373.56;;;14.45;71.56
27144;BME280;14672;50.250;8.312;2023-04-28T07:48:40;98375.78;;;14.55;71.42
27144;BME280;14672;50.250;8.312;2023-04-28T07:51:06;98377.75;;;14.64;70.39
27144;BME280;14672;50.250;8.312;2023-04-28T07:53:32;98380.66;;;14.70;70.73
27144;BME280;14672;50.250;8.312;2023-04-28T07:55:58;98384.66;;;14.78;70.31
27144;BME280;14672;50.250;8.312;2023-04-28T07:58:24;98382.44;;;14.67;70.34
27144;BME280;14672;50.250;8.312;2023-04-28T08:00:49;98394.13;;;14.84;70.15
27144;BME280;14672;50.250;8.312;2023-04-28T08:03:15;98393.38;;;14.89;69.92
27144;BME280;14672;50.250;8.312;2023-04-28T08:05:41;98385.03;;;14.85;69.58
27144;BME280;14672;50.250;8.312;2023-04-28T08:08:07;98391.84;;;14.88;69.64
27144;BME280;14672;50.250;8.312;2023-04-28T08:10:33;98389.34;;;14.95;69.04
27144;BME280;14672;50.250;8.312;2023-04-28T08:12:59;98395.75;;;14.90;69.19
27144;BME280;14672;50.250;8.312;2023-04-28T08:15:24;98398.91;;;14.92;69.12
27144;BME280;14672;50.250;8.312;2023-04-28T08:17:52;98402.06;;;14.94;69.02
27144;BME280;14672;50.250;8.312;2023-04-28T08:20:18;98407.13;;;15.05;68.74
27144;BME280;14672;50.250;8.312;2023-04-28T08:22:45;98402.84;;;14.95;69.30
27144;BME280;14672;50.250;8.312;2023-04-28T08:25:11;98415.66;;;14.99;69.33
27144;BME280;14672;50.250;8.312;2023-04-28T08:27:37;98419.34;;;14.85;69.20
27144;BME280;14672;50.250;8.312;2023-04-28T08:30:08;98426.53;;;14.95;68.90
27144;BME280;14672;50.250;8.312;2023-04-28T08:32:35;98424.16;;;14.94;68.65
27144;BME280;14672;50.250;8.312;2023-04-28T08:35:00;98419.91;;;14.89;68.84
27144;BME280;14672;50.250;8.312;2023-04-28T08:37:26;98424.94;;;14.94;69.49
27144;BME280;14672;50.250;8.312;2023-04-28T08:39:52;98428.28;;;14.93;68.69
27144;BME280;14672;50.250;8.312;2023-04-28T08:42:28;98425.28;;;15.02;68.55
27144;BME280;14672;50.250;8.312;2023-04-28T08:44:57;98419.34;;;14.85;69.51
27144;BME280;14672;50.250;8.312;2023-04-28T08:47:44;98424.50;;;15.01;69.05
27144;BME280;14672;50.250;8.312;2023-04-28T08:50:14;98421.50;;;15.11;68.98
27144;BME280;14672;50.250;8.312;2023-04-28T08:52:41;98424.88;;;15.09;69.17
27144;BME280;14672;50.250;8.312;2023-04-28T08:55:10;98431.38;;;15.10;69.30
27144;BME280;14672;50.250;8.312;2023-04-28T08:57:38;98434.53;;;15.12;69.87
27144;BME280;14672;50.250;8.312;2023-04-28T09:00:06;98423.66;;;14.95;69.85
27144;BME280;14672;50.250;8.312;2023-04-28T09:02:32;98430.75;;;15.20;70.32
27144;BME280;14672;50.250;8.312;2023-04-28T09:04:58;98426.16;;;15.28;70.52
27144;BME280;14672;50.250;8.312;2023-04-28T09:07:24;98428.63;;;15.41;70.56
27144;BME280;14672;50.250;8.312;2023-04-28T09:09:49;98431.72;;;15.58;70.03
27144;BME280;14672;50.250;8.312;2023-04-28T09:12:17;98432.19;;;15.50;70.67
27144;BME280;14672;50.250;8.312;2023-04-28T09:14:43;98431.25;;;15.59;69.66
27144;BME280;14672;50.250;8.312;2023-04-28T09:17:13;98428.66;;;15.61;70.05
27144;BME280;14672;50.250;8.312;2023-04-28T09:19:39;98428.50;;;15.70;69.63
27144;BME280;14672;50.250;8.312;2023-04-28T09:22:08;98421.19;;;15.69;69.84
27144;BME280;14672;50.250;8.312;2023-04-28T09:24:39;98425.28;;;15.88;69.74
27144;BME280;14672;50.250;8.312;2023-04-28T09:27:07;98429.31;;;16.02;69.96
27144;BME280;14672;50.250;8.312;2023-04-28T09:29:36;98427.41;;;16.19;69.58
27144;BME280;14672;50.250;8.312;2023-04-28T09:32:20;98428.78;;;16.29;71.05
27144;BME280;14672;50.250;8.312;2023-04-28T09:34:52;98423.91;;;16.41;69.82
27144;BME280;14672;50.250;8.312;2023-04-28T09:37:24;98427.16;;;16.54;70.30
27144;BME280;14672;50.250;8.312;2023-04-28T09:39:53;98424.41;;;16.65;69.98
27144;BME280;14672;50.250;8.312;2023-04-28T09:42:43;98417.16;;;16.75;69.80
27144;BME280;14672;50.250;8.312;2023-04-28T09:45:14;98425.28;;;16.82;68.54
27144;BME280;14672;50.250;8.312;2023-04-28T09:47:45;98423.78;;;16.92;68.93
27144;BME280;14672;50.250;8.312;2023-04-28T09:50:14;98425.69;;;17.07;69.83
27144;BME280;14672;50.250;8.312;2023-04-28T09:52:43;98430.19;;;17.19;69.45
27144;BME280;14672;50.250;8.312;2023-04-28T09:55:11;98410.94;;;17.36;68.84
27144;BME280;14672;50.250;8.312;2023-04-28T09:57:39;98419.06;;;17.49;69.34
27144;BME280;14672;50.250;8.312;2023-04-28T10:00:07;98407.88;;;17.56;68.35
27144;BME280;14672;50.250;8.312;2023-04-28T10:02:35;98414.19;;;17.66;68.10
27144;BME280;14672;50.250;8.312;2023-04-28T10:05:02;98405.09;;;17.90;69.26
27144;BME280;14672;50.250;8.312;2023-04-28T10:07:28;98393.91;;;18.14;69.46
27144;BME280;14672;50.250;8.312;2023-04-28T10:09:55;98385.53;;;18.27;68.61
27144;BME280;14672;50.250;8.312;2023-04-28T10:12:23;98392.84;;;18.28;67.80
27144;BME280;14672;50.250;8.312;2023-04-28T10:14:50;98384.22;;;18.39;67.51
27144;BME280;14672;50.250;8.312;2023-04-28T10:17:20;98383.44;;;18.61;69.11
27144;BME280;14672;50.250;8.312;2023-04-28T10:19:49;98378.97;;;18.71;68.28
27144;BME280;14672;50.250;8.312;2023-04-28T10:27:41;98358.75;;;18.93;66.50
27144;BME280;14672;50.250;8.312;2023-04-28T10:32:39;98334.22;;;19.39;67.65
27144;BME280;14672;50.250;8.312;2023-04-28T10:40:49;98342.75;;;19.96;64.98
27144;BME280;14672;50.250;8.312;2023-04-28T10:56:12;98353.00;;;19.92;62.59
27144;BME280;14672;50.250;8.312;2023-04-28T10:58:40;98344.94;;;19.85;61.84
27144;BME280;14672;50.250;8.312;2023-04-28T11:03:50;98337.16;;;19.74;61.67
27144;BME280;14672;50.250;8.312;2023-04-28T11:06:31;98344.44;;;19.81;60.27
27144;BME280;14672;50.250;8.312;2023-04-28T11:14:33;98358.16;;;19.69;63.66
27144;BME280;14672;50.250;8.312;2023-04-28T11:17:08;98353.50;;;19.60;64.22
27144;BME280;14672;50.250;8.312;2023-04-28T11:19:39;98351.69;;;19.57;63.64
27144;BME280;14672;50.250;8.312;2023-04-28T11:22:13;98345.06;;;19.68;64.13
27144;BME280;14672;50.250;8.312;2023-04-28T11:24:40;98337.47;;;19.71;63.57
27144;BME280;14672;50.250;8.312;2023-04-28T11:27:06;98331.69;;;19.71;63.72
27144;BME280;14672;50.250;8.312;2023-04-28T11:29:38;98337.72;;;19.67;64.93
27144;BME280;14672;50.250;8.312;2023-04-28T11:32:08;98340.63;;;20.02;64.51
27144;BME280;14672;50.250;8.312;2023-04-28T11:34:36;98329.91;;;20.27;64.18
27144;BME280;14672;50.250;8.312;2023-04-28T11:37:02;98320.97;;;20.31;63.74
27144;BME280;14672;50.250;8.312;2023-04-28T11:39:33;98328.59;;;20.28;64.02
27144;BME280;14672;50.250;8.312;2023-04-28T11:42:08;98323.81;;;20.36;62.84
27144;BME280;14672;50.250;8.312;2023-04-28T11:44:35;98321.97;;;20.39;62.32
27144;BME280;14672;50.250;8.312;2023-04-28T11:47:03;98324.56;;;20.67;62.41
27144;BME280;14672;50.250;8.312;2023-04-28T11:49:31;98325.94;;;20.60;63.13
27144;BME280;14672;50.250;8.312;2023-04-28T11:52:07;98316.66;;;20.43;61.72
27144;BME280;14672;50.250;8.312;2023-04-28T11:54:35;98325.59;;;20.45;61.82
27144;BME280;14672;50.250;8.312;2023-04-28T11:57:01;98327.38;;;20.48;61.56
27144;BME280;14672;50.250;8.312;2023-04-28T11:59:34;98325.25;;;20.54;61.31
27144;BME280;14672;50.250;8.312;2023-04-28T12:02:06;98319.03;;;20.69;61.97
27144;BME280;14672;50.250;8.312;2023-04-28T12:04:35;98321.09;;;20.49;61.14
27144;BME280;14672;50.250;8.312;2023-04-28T12:07:11;98311.94;;;20.70;61.20
27144;BME280;14672;50.250;8.312;2023-04-28T12:09:44;98312.81;;;20.83;61.27
27144;BME280;14672;50.250;8.312;2023-04-28T12:12:13;98314.44;;;20.79;61.58
27144;BME280;14672;50.250;8.312;2023-04-28T12:17:32;98323.22;;;20.92;61.68
27144;BME280;14672;50.250;8.312;2023-04-28T12:20:01;98315.72;;;20.83;61.75
27144;BME280;14672;50.250;8.312;2023-04-28T12:22:27;98312.94;;;20.96;61.79
27144;BME280;14672;50.250;8.312;2023-04-28T12:27:29;98301.06;;;21.24;60.45
27144;BME280;14672;50.250;8.312;2023-04-28T12:29:56;98294.75;;;21.26;59.91
27144;BME280;14672;50.250;8.312;2023-04-28T12:32:41;98300.94;;;21.11;59.82
27144;BME280;14672;50.250;8.312;2023-04-28T12:35:10;98301.13;;;21.19;59.54
27144;BME280;14672;50.250;8.312;2023-04-28T12:37:36;98298.31;;;21.32;59.73
27144;BME280;14672;50.250;8.312;2023-04-28T12:40:04;98309.00;;;21.55;60.00
27144;BME280;14672;50.250;8.312;2023-04-28T12:42:31;98307.84;;;21.45;59.63
27144;BME280;14672;50.250;8.312;2023-04-28T12:44:57;98304.09;;;21.50;59.45
27144;BME280;14672;50.250;8.312;2023-04-28T12:47:23;98295.94;;;21.68;59.50
27144;BME280;14672;50.250;8.312;2023-04-28T12:49:49;98300.88;;;21.73;59.54
27144;BME280;14672;50.250;8.312;2023-04-28T12:52:19;98299.38;;;21.85;59.13
27144;BME280;14672;50.250;8.312;2023-04-28T12:54:45;98307.44;;;21.54;59.85
27144;BME280;14672;50.250;8.312;2023-04-28T12:57:18;98307.59;;;21.62;59.58
27144;BME280;14672;50.250;8.312;2023-04-28T12:59:45;98307.84;;;21.45;59.76
27144;BME280;14672;50.250;8.312;2023-04-28T13:02:13;98305.66;;;21.51;59.49
27144;BME280;14672;50.250;8.312;2023-04-28T13:04:40;98294.25;;;21.40;59.74
27144;BME280;14672;50.250;8.312;2023-04-28T13:07:14;98304.72;;;21.43;59.10
27144;BME280;14672;50.250;8.312;2023-04-28T13:09:40;98298.16;;;21.24;59.34
27144;BME280;14672;50.250;8.312;2023-04-28T13:12:07;98300.34;;;21.37;59.01
27144;BME280;14672;50.250;8.312;2023-04-28T13:14:33;98305.63;;;21.14;59.68
27144;BME280;14672;50.250;8.312;2023-04-28T13:16:59;98291.47;;;21.10;59.71
27144;BME280;14672;50.250;8.312;2023-04-28T13:19:26;98293.00;;;21.17;59.93
27144;BME280;14672;50.250;8.312;2023-04-28T13:21:52;98291.59;;;21.24;60.01
27144;BME280;14672;50.250;8.312;2023-04-28T13:24:18;98283.34;;;21.33;59.73
27144;BME280;14672;50.250;8.312;2023-04-28T13:26:44;98280.03;;;21.24;60.21
27144;BME280;14672;50.250;8.312;2023-04-28T13:29:11;98271.25;;;21.10;60.55
27144;BME280;14672;50.250;8.312;2023-04-28T13:31:36;98277.69;;;21.22;60.10
27144;BME280;14672;50.250;8.312;2023-04-28T13:34:03;98275.50;;;21.09;60.11
27144;BME280;14672;50.250;8.312;2023-04-28T13:36:33;98268.31;;;20.97;60.39
27144;BME280;14672;50.250;8.312;2023-04-28T13:38:59;98267.03;;;20.93;60.66
27144;BME280;14672;50.250;8.312;2023-04-28T13:41:26;98268.50;;;20.81;60.12
27144;BME280;14672;50.250;8.312;2023-04-28T13:43:52;98258.75;;;20.84;60.27